Time;durP1;ratioP1;P1;durP2;ratioP2;P2;SDS_P1;SDS_P2;PMS_P1;PMS_P2;Temp;Humidity;BMP_temperature;BMP_pressure;BME280_temperature;BME280_humidity;BME280_pressure;Samples;Min_cycle;Max_cycle;Signal;HPM_P1;HPM_P2
2023/04/26 00:02:17;;;;;;;;;;;;;;;13.67;43.09;100457.66;5052255;28;19920;-68
2023/04/26 00:04:42;;;;;;;;;;;;;;;13.67;43.11;100455.00;5052162;28;20012;-69
2023/04/26 00:07:07;;;;;;;;;;;;;;;13.65;43.41;100462.38;5052162;28;20290;-68
2023/04/26 00:09:33;;;;;;;;;;;;;;;13.62;43.15;100463.59;5052079;28;19917;-69
2023/04/26 00:11:59;;;;;;;;;;;;;;;13.61;43.32;100461.09;5052222;28;20245;-68
2023/04/26 00:14:24;;;;;;;;;;;;;;;13.56;43.09;100448.28;5052356;28;19913;-68
2023/04/26 00:16:49;;;;;;;;;;;;;;;13.53;43.54;100453.16;5052085;28;19966;-68
2023/04/26 00:19:15;;;;;;;;;;;;;;;13.48;43.43;100451.06;5052109;28;19912;-67
2023/04/26 00:21:41;;;;;;;;;;;;;;;13.47;43.91;100457.44;5051981;28;20007;-68
2023/04/26 00:24:06;;;;;;;;;;;;;;;13.45;44.61;100453.28;5052009;28;20065;-69
2023/04/26 00:26:33;;;;;;;;;;;;;;;13.43;44.31;100460.69;5055472;28;19920;-69
2023/04/26 00:28:58;;;;;;;;;;;;;;;13.40;44.52;100445.03;5054939;28;20261;-69
2023/04/26 00:31:24;;;;;;;;;;;;;;;13.40;44.74;100458.38;5056054;28;19920;-67
2023/04/26 00:33:50;;;;;;;;;;;;;;;13.40;44.37;100458.38;5055856;28;19925;-67
2023/04/26 00:36:18;;;;;;;;;;;;;;;13.38;44.25;100458.56;5055639;28;19919;-69
2023/04/26 00:38:43;;;;;;;;;;;;;;;13.36;44.86;100457.94;5055470;28;19913;-68
2023/04/26 00:41:09;;;;;;;;;;;;;;;13.32;44.84;100452.13;5055612;28;19912;-68
2023/04/26 00:43:43;;;;;;;;;;;;;;;13.32;44.75;100451.31;5058491;28;19922;-68
2023/04/26 00:46:08;;;;;;;;;;;;;;;13.27;44.88;100443.81;5075304;28;19916;-69
2023/04/26 00:48:35;;;;;;;;;;;;;;;13.24;44.62;100438.84;5075505;28;19974;-68
2023/04/26 00:51:00;;;;;;;;;;;;;;;13.24;44.70;100443.38;5075362;28;20086;-69
2023/04/26 00:53:26;;;;;;;;;;;;;;;13.28;44.34;100441.97;5075206;28;20283;-68
2023/04/26 00:55:53;;;;;;;;;;;;;;;13.28;44.53;100440.13;5075308;28;19919;-70
2023/04/26 00:58:18;;;;;;;;;;;;;;;13.29;44.74;100435.63;5075488;28;19973;-69
2023/04/26 01:00:43;;;;;;;;;;;;;;;13.30;44.39;100438.13;5075384;28;20338;-70
2023/04/26 01:03:09;;;;;;;;;;;;;;;13.30;44.72;100435.47;5073902;28;19913;-67
2023/04/26 01:05:35;;;;;;;;;;;;;;;13.31;44.45;100444.31;5075256;28;20026;-68
2023/04/26 01:08:03;;;;;;;;;;;;;;;13.29;45.00;100436.44;5073714;28;19967;-68
2023/04/26 01:10:29;;;;;;;;;;;;;;;13.29;44.66;100438.28;5073929;28;19919;-69
2023/04/26 01:12:56;;;;;;;;;;;;;;;13.27;45.11;100434.97;5075002;28;20369;-68
2023/04/26 01:15:22;;;;;;;;;;;;;;;13.24;44.89;100433.50;5074957;28;19913;-69
2023/04/26 01:17:48;;;;;;;;;;;;;;;13.22;44.77;100432.03;5075058;28;19973;-68
2023/04/26 01:20:13;;;;;;;;;;;;;;;13.21;44.85;100436.56;5074824;28;19955;-68
2023/04/26 01:22:39;;;;;;;;;;;;;;;13.18;45.12;100422.75;5074866;28;19956;-68
2023/04/26 01:25:06;;;;;;;;;;;;;;;13.16;45.13;100427.41;5074989;28;19913;-68
2023/04/26 01:27:32;;;;;;;;;;;;;;;13.12;45.21;100429.63;5075071;28;20382;-68
2023/04/26 01:29:57;;;;;;;;;;;;;;;13.07;45.58;100426.72;5080228;28;19991;-67
2023/04/26 01:32:22;;;;;;;;;;;;;;;13.01;45.75;100428.28;5093918;28;19979;-68
2023/04/26 01:34:47;;;;;;;;;;;;;;;12.94;45.68;100419.34;5088771;28;20418;-68
2023/04/26 01:37:13;;;;;;;;;;;;;;;12.87;45.92;100418.44;5075914;28;20394;-68
2023/04/26 01:39:38;;;;;;;;;;;;;;;12.84;45.94;100420.66;5075161;28;19912;-68
2023/04/26 01:42:03;;;;;;;;;;;;;;;12.79;45.68;100421.19;5075061;28;19938;-68
2023/04/26 01:44:30;;;;;;;;;;;;;;;12.73;46.54;100423.78;5074992;28;19946;-69
2023/04/26 01:46:55;;;;;;;;;;;;;;;12.64;46.80;100418.53;5074338;28;19916;-68
2023/04/26 01:49:21;;;;;;;;;;;;;;;12.58;46.91;100421.09;5056545;28;19924;-68
2023/04/26 01:51:46;;;;;;;;;;;;;;;12.52;47.82;100420.00;5074260;28;19940;-68
2023/04/26 01:54:11;;;;;;;;;;;;;;;12.48;47.54;100421.38;5074375;28;19913;-67
2023/04/26 01:56:37;;;;;;;;;;;;;;;12.41;48.33;100420.44;5074120;28;20268;-68
2023/04/26 01:59:02;;;;;;;;;;;;;;;12.34;48.96;100414.16;5074315;28;19913;-68
2023/04/26 02:01:27;;;;;;;;;;;;;;;12.24;48.41;100413.63;5074420;28;19974;-68
2023/04/26 02:03:53;;;;;;;;;;;;;;;12.17;48.88;100412.69;5073871;28;19920;-67
2023/04/26 02:06:20;;;;;;;;;;;;;;;12.08;49.88;100403.91;5072766;28;20322;-68
2023/04/26 02:08:45;;;;;;;;;;;;;;;12.01;49.38;100403.81;5073852;28;19912;-68
2023/04/26 02:11:10;;;;;;;;;;;;;;;11.96;49.75;100402.69;5074110;28;19970;-69
2023/04/26 02:13:36;;;;;;;;;;;;;;;11.90;50.14;100393.56;5074043;28;19960;-69
2023/04/26 02:16:02;;;;;;;;;;;;;;;11.87;49.48;100401.94;5073940;28;20351;-68
2023/04/26 02:18:28;;;;;;;;;;;;;;;11.83;50.18;100403.28;5072729;28;20356;-68
2023/04/26 02:20:54;;;;;;;;;;;;;;;11.78;50.64;100401.16;5074741;28;19913;-66
2023/04/26 02:23:19;;;;;;;;;;;;;;;11.75;50.55;100406.81;5073665;28;20384;-68
2023/04/26 02:25:46;;;;;;;;;;;;;;;11.74;50.92;100407.00;5073934;28;20332;-67
2023/04/26 02:28:11;;;;;;;;;;;;;;;11.73;51.12;100408.00;5074014;28;19922;-67
2023/04/26 02:30:37;;;;;;;;;;;;;;;11.72;51.42;100414.34;5073923;28;20015;-68
2023/04/26 02:33:02;;;;;;;;;;;;;;;11.73;51.56;100410.69;5073321;28;20383;-67
2023/04/26 02:35:28;;;;;;;;;;;;;;;11.74;51.88;100407.00;5073291;28;20363;-68
2023/04/26 02:37:53;;;;;;;;;;;;;;;11.77;52.03;100406.63;5072009;28;19913;-68
2023/04/26 02:40:18;;;;;;;;;;;;;;;11.78;51.76;100405.66;5073268;28;19920;-69
2023/04/26 02:42:45;;;;;;;;;;;;;;;11.78;51.62;100409.16;5073128;28;19923;-67
2023/04/26 02:45:14;;;;;;;;;;;;;;;11.78;51.81;100413.66;5073409;28;20023;-68
2023/04/26 02:47:39;;;;;;;;;;;;;;;11.77;51.32;100407.47;5072477;28;19953;-68
2023/04/26 02:50:06;;;;;;;;;;;;;;;11.80;51.87;100403.66;5073242;28;19913;-68
2023/04/26 02:52:32;;;;;;;;;;;;;;;11.82;51.31;100404.28;5072839;28;20435;-67
2023/04/26 02:54:57;;;;;;;;;;;;;;;11.83;50.75;100403.28;5072939;28;19959;-68
2023/04/26 02:57:22;;;;;;;;;;;;;;;11.84;50.54;100398.78;5072868;28;19919;-69
2023/04/26 02:59:48;;;;;;;;;;;;;;;11.85;50.91;100403.09;5072878;28;19952;-68
2023/04/26 03:02:13;;;;;;;;;;;;;;;11.87;50.95;100396.59;5072852;28;19919;-67
2023/04/26 03:04:38;;;;;;;;;;;;;;;11.89;50.75;100407.09;5072817;28;20315;-67
2023/04/26 03:07:04;;;;;;;;;;;;;;;11.87;51.26;100401.94;5072947;28;20247;-67
2023/04/26 03:09:29;;;;;;;;;;;;;;;11.87;51.62;100396.59;5072809;28;19931;-67
2023/04/26 03:11:55;;;;;;;;;;;;;;;11.85;51.57;100403.94;5072753;28;20351;-67
2023/04/26 03:14:20;;;;;;;;;;;;;;;11.87;51.55;100396.59;5072884;28;19916;-67
2023/04/26 03:16:47;;;;;;;;;;;;;;;11.89;52.05;100399.94;5072747;28;19919;-68
2023/04/26 03:19:12;;;;;;;;;;;;;;;11.93;52.01;100384.38;5072454;28;19912;-68
2023/04/26 03:21:38;;;;;;;;;;;;;;;11.98;51.79;100393.50;5072762;28;19926;-68
2023/04/26 03:24:03;;;;;;;;;;;;;;;12.04;51.58;100392.75;5071587;28;20433;-68
2023/04/26 03:26:29;;;;;;;;;;;;;;;12.19;51.21;100390.13;5072681;28;19958;-66
2023/04/26 03:28:54;;;;;;;;;;;;;;;12.50;50.72;100394.50;5072972;28;19912;-68
2023/04/26 03:31:20;;;;;;;;;;;;;;;12.98;49.84;100390.38;5072730;28;19948;-68
2023/04/26 03:33:46;;;;;;;;;;;;;;;13.65;48.82;100387.47;5072585;28;19913;-67
2023/04/26 03:36:11;;;;;;;;;;;;;;;14.31;46.12;100387.97;5072648;28;19958;-68
2023/04/26 03:38:37;;;;;;;;;;;;;;;14.77;45.28;100382.09;5072417;28;19912;-68
2023/04/26 03:41:02;;;;;;;;;;;;;;;14.75;45.68;100384.16;5072554;28;19982;-68
2023/04/26 03:43:27;;;;;;;;;;;;;;;14.43;45.60;100377.56;5072564;28;19916;-69
2023/04/26 03:45:53;;;;;;;;;;;;;;;14.10;46.26;100374.63;5072366;28;19960;-68
2023/04/26 03:48:18;;;;;;;;;;;;;;;13.88;46.90;100382.72;5072338;28;19916;-68
2023/04/26 03:50:44;;;;;;;;;;;;;;;13.75;46.79;100377.25;5072187;28;19912;-68
2023/04/26 03:53:10;;;;;;;;;;;;;;;13.71;47.21;100373.31;5072350;28;19948;-68
2023/04/26 03:55:36;;;;;;;;;;;;;;;13.66;47.68;100380.25;5072557;28;20289;-67
2023/04/26 03:58:02;;;;;;;;;;;;;;;13.61;47.65;100375.47;5072369;28;20010;-68
2023/04/26 04:00:27;;;;;;;;;;;;;;;13.64;47.89;100369.75;5075791;28;19913;-68
2023/04/26 04:02:53;;;;;;;;;;;;;;;13.67;47.41;100369.34;5076394;28;19920;-68
2023/04/26 04:05:18;;;;;;;;;;;;;;;13.71;47.22;100365.28;5076277;28;20357;-67
2023/04/26 04:07:44;;;;;;;;;;;;;;;13.66;46.97;100373.06;5076623;28;20316;-68
2023/04/26 04:10:09;;;;;;;;;;;;;;;13.55;46.82;100366.34;5076383;28;19913;-68
2023/04/26 04:12:35;;;;;;;;;;;;;;;13.44;46.93;100358.84;5076186;28;20336;-67
2023/04/26 04:15:00;;;;;;;;;;;;;;;13.23;47.04;100372.19;5075996;28;19942;-67
2023/04/26 04:17:26;;;;;;;;;;;;;;;13.11;47.32;100369.16;5076089;28;19912;-69
2023/04/26 04:19:51;;;;;;;;;;;;;;;13.05;47.87;100369.94;5075786;28;20365;-67
2023/04/26 04:22:16;;;;;;;;;;;;;;;13.01;47.63;100374.00;5076235;28;19912;-67
2023/04/26 04:24:43;;;;;;;;;;;;;;;12.95;47.90;100372.03;5075950;28;19960;-67
2023/04/26 04:27:08;;;;;;;;;;;;;;;12.89;48.11;100362.13;5075938;28;19947;-68
2023/04/26 04:29:33;;;;;;;;;;;;;;;12.86;48.53;100366.00;5075680;28;19948;-72
2023/04/26 04:31:59;;;;;;;;;;;;;;;12.86;48.50;100365.16;5075572;28;19920;-71
2023/04/26 04:34:25;;;;;;;;;;;;;;;12.86;48.58;100370.50;5076049;28;20427;-68
2023/04/26 04:36:50;;;;;;;;;;;;;;;12.89;48.38;100364.78;5089914;28;19934;-68
2023/04/26 04:39:16;;;;;;;;;;;;;;;12.90;48.69;100363.75;5095095;28;20280;-68
2023/04/26 04:41:47;;;;;;;;;;;;;;;12.91;48.68;100373.44;5081310;28;19923;-68
2023/04/26 04:44:14;;;;;;;;;;;;;;;12.95;48.88;100367.53;5076799;28;19916;-68
2023/04/26 04:46:40;;;;;;;;;;;;;;;13.00;49.08;100372.31;5075875;28;19962;-69
2023/04/26 04:49:09;;;;;;;;;;;;;;;13.04;48.90;100368.28;5075856;28;19916;-67
2023/04/26 04:51:35;;;;;;;;;;;;;;;13.10;48.64;100366.69;5075440;28;19913;-68
2023/04/26 04:54:13;;;;;;;;;;;;;;;13.36;48.45;100360.81;5075109;28;19919;-67
2023/04/26 04:56:38;;;;;;;;;;;;;;;14.40;46.32;100364.53;5075281;28;19912;-68
2023/04/26 04:59:04;;;;;;;;;;;;;;;14.74;45.20;100367.22;5075272;28;20006;-67
2023/04/26 05:01:32;;;;;;;;;;;;;;;14.56;45.38;100365.09;5076444;28;20399;-71
2023/04/26 05:03:58;;;;;;;;;;;;;;;14.29;46.01;100360.56;5075227;28;19912;-68
2023/04/26 05:06:26;;;;;;;;;;;;;;;14.08;46.63;100364.13;5074825;28;19965;-67
2023/04/26 05:08:52;;;;;;;;;;;;;;;13.98;47.18;100365.50;5075001;28;19917;-67
2023/04/26 05:11:17;;;;;;;;;;;;;;;13.95;47.34;100370.22;5074687;28;19913;-68
2023/04/26 05:13:43;;;;;;;;;;;;;;;13.91;47.11;100365.44;5073603;28;20058;-68
2023/04/26 05:16:08;;;;;;;;;;;;;;;13.90;47.34;100364.63;5074722;28;19913;-69
2023/04/26 05:18:33;;;;;;;;;;;;;;;13.97;47.35;100369.19;5075196;28;19912;-68
2023/04/26 05:20:59;;;;;;;;;;;;;;;14.04;47.46;100364.72;5074743;28;19917;-68
2023/04/26 05:23:24;;;;;;;;;;;;;;;14.09;47.46;100359.59;5074458;28;20268;-68
2023/04/26 05:25:50;;;;;;;;;;;;;;;14.17;47.10;100364.81;5074748;28;19944;-69
2023/04/26 05:28:15;;;;;;;;;;;;;;;14.28;46.67;100372.31;5074745;28;19952;-67
2023/04/26 05:30:40;;;;;;;;;;;;;;;14.43;46.35;100367.69;5074149;28;19939;-68
2023/04/26 05:33:06;;;;;;;;;;;;;;;14.57;45.84;100361.38;5074808;28;19912;-67
2023/04/26 05:35:32;;;;;;;;;;;;;;;14.70;45.88;100365.13;5074771;28;20360;-67
2023/04/26 05:37:57;;;;;;;;;;;;;;;14.80;45.48;100370.97;5074792;28;19958;-68
2023/04/26 05:40:22;;;;;;;;;;;;;;;14.83;45.31;100362.53;5074964;28;19966;-68
2023/04/26 05:42:49;;;;;;;;;;;;;;;14.89;45.39;100364.41;5074144;28;19916;-67
2023/04/26 05:45:18;;;;;;;;;;;;;;;14.91;45.23;100367.72;5074322;28;19995;-69
2023/04/26 05:47:43;;;;;;;;;;;;;;;14.95;45.04;100363.59;5074188;28;19916;-68
2023/04/26 05:50:08;;;;;;;;;;;;;;;15.00;45.03;100363.81;5074038;28;20414;-68
2023/04/26 05:52:34;;;;;;;;;;;;;;;15.03;44.68;100360.72;5073973;28;19920;-68
2023/04/26 05:55:02;;;;;;;;;;;;;;;15.08;44.28;100363.66;5073757;28;20438;-69
2023/04/26 05:57:29;;;;;;;;;;;;;;;15.16;44.85;100355.44;5072553;28;19970;-69
2023/04/26 05:59:54;;;;;;;;;;;;;;;15.24;44.04;100354.41;5072718;28;19974;-68
2023/04/26 06:02:19;;;;;;;;;;;;;;;15.36;44.53;100351.97;5073925;28;20023;-68
2023/04/26 06:04:45;;;;;;;;;;;;;;;15.46;43.99;100355.91;5073841;28;19912;-68
2023/04/26 06:07:11;;;;;;;;;;;;;;;15.50;43.34;100359.81;5073731;28;20050;-66
2023/04/26 06:09:36;;;;;;;;;;;;;;;15.57;43.86;100359.84;5073608;28;20284;-69
2023/04/26 06:12:02;;;;;;;;;;;;;;;15.65;43.50;100362.38;5073711;28;19984;-68
2023/04/26 06:14:28;;;;;;;;;;;;;;;15.74;43.87;100358.44;5073283;28;19912;-67
2023/04/26 06:16:53;;;;;;;;;;;;;;;15.82;43.56;100354.72;5073831;28;19913;-70
2023/04/26 06:19:19;;;;;;;;;;;;;;;15.87;42.84;100359.47;5072497;28;19919;-72
2023/04/26 06:21:44;;;;;;;;;;;;;;;15.86;42.95;100349.75;5073290;28;20007;-69
2023/04/26 06:24:09;;;;;;;;;;;;;;;15.92;42.51;100348.94;5072612;28;19916;-69
2023/04/26 06:26:35;;;;;;;;;;;;;;;15.96;41.77;100350.19;5073271;28;20006;-68
2023/04/26 06:29:00;;;;;;;;;;;;;;;16.00;42.43;100343.38;5073393;28;19967;-69
2023/04/26 06:31:26;;;;;;;;;;;;;;;16.02;41.91;100343.97;5071625;28;19920;-69
2023/04/26 06:33:51;;;;;;;;;;;;;;;16.08;42.43;100345.81;5072080;28;19916;-67
2023/04/26 06:36:16;;;;;;;;;;;;;;;16.14;42.71;100342.28;5071128;28;19912;-68
2023/04/26 06:38:42;;;;;;;;;;;;;;;16.21;42.28;100350.38;5072863;28;19913;-69
2023/04/26 06:41:07;;;;;;;;;;;;;;;16.26;42.04;100343.31;5072433;28;19912;-69
2023/04/26 06:43:33;;;;;;;;;;;;;;;16.31;41.57;100348.91;5072465;28;19917;-69
2023/04/26 06:45:58;;;;;;;;;;;;;;;16.32;39.83;100341.66;5072898;28;19923;-68
2023/04/26 06:48:23;;;;;;;;;;;;;;;16.38;40.61;100343.50;5073085;28;19916;-69
2023/04/26 06:50:49;;;;;;;;;;;;;;;16.48;40.67;100334.97;5072995;28;19912;-68
2023/04/26 06:53:14;;;;;;;;;;;;;;;16.53;40.95;100340.56;5072814;28;19913;-68
2023/04/26 06:55:39;;;;;;;;;;;;;;;16.61;40.96;100341.16;5064975;28;19913;-68
2023/04/26 06:58:05;;;;;;;;;;;;;;;16.68;40.70;100338.47;5052842;28;19919;-68
2023/04/26 07:00:30;;;;;;;;;;;;;;;16.71;39.62;100338.03;5052906;28;19963;-68
2023/04/26 07:02:56;;;;;;;;;;;;;;;16.79;40.11;100345.91;5052726;28;19920;-70
2023/04/26 07:05:21;;;;;;;;;;;;;;;16.86;39.68;100341.31;5052739;28;19962;-71
2023/04/26 07:07:46;;;;;;;;;;;;;;;16.93;39.47;100344.78;5068212;28;19916;-70
2023/04/26 07:10:12;;;;;;;;;;;;;;;16.97;39.15;100350.56;5052512;28;19912;-66
2023/04/26 07:12:38;;;;;;;;;;;;;;;17.04;38.55;100349.47;5052368;28;19917;-69
2023/04/26 07:15:05;;;;;;;;;;;;;;;17.09;38.03;100348.03;5052573;28;19913;-69
2023/04/26 07:17:31;;;;;;;;;;;;;;;17.12;38.44;100342.22;5052895;28;19919;-68
2023/04/26 07:19:56;;;;;;;;;;;;;;;17.21;38.84;100349.00;5052813;28;20334;-70
2023/04/26 07:22:22;;;;;;;;;;;;;;;17.29;38.91;100351.41;5053175;28;19917;-70
2023/04/26 07:24:47;;;;;;;;;;;;;;;17.36;37.85;100352.22;5068555;28;19917;-71
2023/04/26 07:27:13;;;;;;;;;;;;;;;17.44;38.46;100348.44;5053696;28;19913;-71
2023/04/26 07:29:38;;;;;;;;;;;;;;;17.45;37.26;100340.13;5052625;28;20345;-74
2023/04/26 07:32:04;;;;;;;;;;;;;;;17.51;37.46;100343.81;5052525;28;19919;-69
2023/04/26 07:34:29;;;;;;;;;;;;;;;17.58;37.58;100341.91;5051978;28;19956;-70
2023/04/26 07:36:55;;;;;;;;;;;;;;;17.67;36.60;100342.47;5084958;28;19913;-69
2023/04/26 07:39:21;;;;;;;;;;;;;;;17.74;37.21;100343.28;5053351;28;20437;-69
2023/04/26 07:41:46;;;;;;;;;;;;;;;17.80;36.90;100337.00;5072814;28;19913;-67
2023/04/26 07:44:16;;;;;;;;;;;;;;;17.85;36.74;100345.25;5063622;28;20298;-68
2023/04/26 07:46:41;;;;;;;;;;;;;;;17.84;36.89;100339.03;5058795;28;20399;-68
2023/04/26 07:49:07;;;;;;;;;;;;;;;17.89;36.66;100339.19;5053747;28;19916;-68
2023/04/26 07:51:33;;;;;;;;;;;;;;;17.94;36.42;100333.16;5054207;28;19917;-68
2023/04/26 07:53:59;;;;;;;;;;;;;;;17.93;35.38;100340.44;5071660;28;19912;-68
2023/04/26 07:56:29;;;;;;;;;;;;;;;17.91;35.82;100333.59;5074369;28;19924;-68
2023/04/26 07:58:55;;;;;;;;;;;;;;;17.97;36.58;100331.91;5073320;28;19912;-65
2023/04/26 08:01:20;;;;;;;;;;;;;;;18.07;36.32;100332.22;5075812;28;19923;-66
2023/04/26 08:03:50;;;;;;;;;;;;;;;18.14;36.34;100331.09;5073850;28;19917;-68
2023/04/26 08:06:18;;;;;;;;;;;;;;;18.22;35.88;100336.22;5075045;28;19919;-67
2023/04/26 08:08:48;;;;;;;;;;;;;;;18.27;35.98;100330.97;5079754;28;20010;-67
2023/04/26 08:11:13;;;;;;;;;;;;;;;18.27;35.26;100339.06;5078453;28;20041;-67
2023/04/26 08:13:38;;;;;;;;;;;;;;;18.28;35.36;100334.50;5074647;28;19927;-69
2023/04/26 08:16:22;;;;;;;;;;;;;;;18.30;35.26;100336.97;5072351;28;19935;-66
2023/04/26 08:18:51;;;;;;;;;;;;;;;18.37;34.94;100340.41;5070833;28;19920;-66
2023/04/26 08:21:31;;;;;;;;;;;;;;;18.45;34.91;100330.13;5071629;28;19912;-66
2023/04/26 08:24:08;;;;;;;;;;;;;;;18.51;34.93;100331.13;5071056;28;19916;-67
2023/04/26 08:26:34;;;;;;;;;;;;;;;18.48;34.72;100331.56;5068178;28;20279;-67
2023/04/26 08:29:11;;;;;;;;;;;;;;;18.52;35.25;100324.69;5071434;28;19919;-68
2023/04/26 08:31:46;;;;;;;;;;;;;;;18.63;34.56;100321.25;5069002;28;20268;-66
2023/04/26 08:34:13;;;;;;;;;;;;;;;18.64;34.22;100322.91;5070677;28;20018;-66
2023/04/26 08:36:40;;;;;;;;;;;;;;;18.57;33.54;100322.13;5071854;28;19983;-67
2023/04/26 08:39:13;;;;;;;;;;;;;;;18.68;34.02;100323.28;5071429;28;19912;-69
2023/04/26 08:41:42;;;;;;;;;;;;;;;18.72;33.84;100327.16;5068176;28;19935;-69
2023/04/26 08:44:08;;;;;;;;;;;;;;;18.76;33.63;100315.69;5070614;28;19917;-69
2023/04/26 08:46:35;;;;;;;;;;;;;;;18.85;33.63;100327.84;5068787;28;19977;-69
2023/04/26 08:49:21;;;;;;;;;;;;;;;19.01;32.82;100322.84;5074918;28;19919;-69
2023/04/26 08:51:48;;;;;;;;;;;;;;;19.21;33.11;100319.88;5072359;28;20241;-67
2023/04/26 08:54:14;;;;;;;;;;;;;;;19.32;32.92;100321.78;5072249;28;19958;-68
2023/04/26 08:56:42;;;;;;;;;;;;;;;19.38;32.63;100316.31;5074524;28;19924;-69
2023/04/26 08:59:08;;;;;;;;;;;;;;;19.45;32.47;100314.31;5072730;28;19971;-69
2023/04/26 09:01:33;;;;;;;;;;;;;;;19.44;32.23;100318.06;5074950;28;19967;-69
2023/04/26 09:03:59;;;;;;;;;;;;;;;19.50;32.13;100322.53;5073310;28;20283;-67
2023/04/26 09:06:26;;;;;;;;;;;;;;;19.45;31.89;100308.91;5074833;28;19912;-66
2023/04/26 09:08:53;;;;;;;;;;;;;;;19.38;32.11;100307.38;5074480;28;19916;-68
2023/04/26 09:11:19;;;;;;;;;;;;;;;19.32;31.66;100302.88;5074529;28;20021;-68
2023/04/26 09:13:44;;;;;;;;;;;;;;;19.32;31.44;100298.31;5068940;28;20360;-67
2023/04/26 09:16:10;;;;;;;;;;;;;;;19.35;31.31;100308.66;5066142;28;20382;-68
2023/04/26 09:18:46;;;;;;;;;;;;;;;19.34;31.65;100301.59;5069898;28;20352;-68
2023/04/26 09:21:12;;;;;;;;;;;;;;;19.38;31.52;100296.59;5072997;28;20374;-66
2023/04/26 09:23:55;;;;;;;;;;;;;;;19.47;31.86;100301.41;5074270;28;19912;-68
2023/04/26 09:26:21;;;;;;;;;;;;;;;19.47;31.66;100301.41;5068267;28;20011;-67
2023/04/26 09:28:46;;;;;;;;;;;;;;;19.54;32.09;100287.00;5054723;28;19968;-67
2023/04/26 09:31:21;;;;;;;;;;;;;;;19.59;31.78;100281.72;5053690;28;19959;-70
2023/04/26 09:33:59;;;;;;;;;;;;;;;19.62;31.70;100281.25;5071020;28;19920;-68
2023/04/26 09:36:25;;;;;;;;;;;;;;;19.67;31.18;100279.50;5072694;28;19912;-68
2023/04/26 09:38:50;;;;;;;;;;;;;;;19.73;31.74;100277.75;5054842;28;19917;-68
2023/04/26 09:41:15;;;;;;;;;;;;;;;19.77;31.24;100273.53;5055769;28;20414;-69
2023/04/26 09:43:41;;;;;;;;;;;;;;;19.83;30.82;100277.97;5062576;28;20323;-68
2023/04/26 09:46:08;;;;;;;;;;;;;;;19.95;30.59;100281.53;5058721;28;20015;-69
2023/04/26 09:48:33;;;;;;;;;;;;;;;19.99;30.32;100281.88;5054503;28;19917;-67
2023/04/26 09:51:02;;;;;;;;;;;;;;;19.93;29.84;100272.78;5054233;28;19917;-70
2023/04/26 09:53:29;;;;;;;;;;;;;;;19.91;29.97;100274.91;5054019;28;19913;-68
2023/04/26 09:55:55;;;;;;;;;;;;;;;19.93;30.28;100264.69;5054203;28;19966;-69
2023/04/26 09:58:22;;;;;;;;;;;;;;;20.05;30.74;100264.69;5053763;28;20394;-68
2023/04/26 10:00:49;;;;;;;;;;;;;;;20.22;30.24;100264.78;5054129;28;19916;-68
2023/04/26 10:03:16;;;;;;;;;;;;;;;20.32;30.24;100259.59;5054246;28;19920;-68
2023/04/26 10:05:42;;;;;;;;;;;;;;;20.36;29.35;100263.47;5035972;28;19987;-68
2023/04/26 10:08:07;;;;;;;;;;;;;;;20.37;29.00;100259.69;5054001;28;20364;-68
2023/04/26 10:10:33;;;;;;;;;;;;;;;20.38;29.35;100258.63;5067735;28;19980;-69
2023/04/26 10:12:59;;;;;;;;;;;;;;;20.26;29.39;100260.56;5072947;28;19917;-68
2023/04/26 10:15:25;;;;;;;;;;;;;;;20.11;29.44;100261.84;5073369;28;19919;-68
2023/04/26 10:17:50;;;;;;;;;;;;;;;20.02;28.98;100266.00;5073570;28;19935;-68
2023/04/26 10:20:17;;;;;;;;;;;;;;;19.95;29.77;100259.91;5074984;28;20008;-67
2023/04/26 10:22:45;;;;;;;;;;;;;;;19.90;29.59;100257.06;5073583;28;19966;-69
2023/04/26 10:25:10;;;;;;;;;;;;;;;19.88;30.14;100253.78;5073353;28;20229;-68
2023/04/26 10:27:41;;;;;;;;;;;;;;;19.88;30.34;100258.34;5073414;28;19966;-68
2023/04/26 10:30:08;;;;;;;;;;;;;;;19.84;29.42;100249.06;5073282;28;19912;-67
2023/04/26 10:32:53;;;;;;;;;;;;;;;19.84;30.28;100249.06;5072905;28;19924;-68
2023/04/26 10:35:19;;;;;;;;;;;;;;;19.90;30.22;100251.66;5073352;28;19912;-67
2023/04/26 10:37:56;;;;;;;;;;;;;;;20.11;29.02;100253.75;5073497;28;19912;-69
2023/04/26 10:40:30;;;;;;;;;;;;;;;20.45;28.88;100250.41;5073263;28;20411;-66
2023/04/26 10:43:07;;;;;;;;;;;;;;;20.77;28.09;100261.59;5071567;28;19916;-68
2023/04/26 10:45:33;;;;;;;;;;;;;;;21.00;28.17;100245.25;5052974;28;19917;-66
2023/04/26 10:48:24;;;;;;;;;;;;;;;21.08;28.76;100249.44;5053092;28;20292;-68
2023/04/26 10:51:00;;;;;;;;;;;;;;;21.03;28.50;100251.00;5053285;28;19917;-68
2023/04/26 10:53:28;;;;;;;;;;;;;;;21.19;28.52;100252.09;5068066;28;19913;-69
2023/04/26 10:55:54;;;;;;;;;;;;;;;21.41;28.83;100249.53;5052894;28;19913;-69
2023/04/26 10:58:32;;;;;;;;;;;;;;;21.60;28.99;100255.50;5052812;28;19920;-68
2023/04/26 11:01:12;;;;;;;;;;;;;;;21.70;28.15;100252.97;5052701;28;19913;-66
2023/04/26 11:03:39;;;;;;;;;;;;;;;21.63;28.40;100260.41;5052804;28;19913;-68
2023/04/26 11:06:06;;;;;;;;;;;;;;;21.36;28.14;100248.59;5052612;28;20430;-66
2023/04/26 11:08:31;;;;;;;;;;;;;;;21.13;28.18;100250.38;5051947;28;20335;-67
2023/04/26 11:10:57;;;;;;;;;;;;;;;21.05;28.29;100258.88;5052720;28;19961;-67
2023/04/26 11:13:23;;;;;;;;;;;;;;;20.92;28.27;100253.78;5052517;28;19959;-69
2023/04/26 11:15:52;;;;;;;;;;;;;;;20.83;29.09;100245.22;5052553;28;20361;-68
2023/04/26 11:18:18;;;;;;;;;;;;;;;20.84;28.73;100256.88;5052540;28;19913;-66
2023/04/26 11:20:44;;;;;;;;;;;;;;;20.86;28.83;100250.16;5052233;28;20414;-68
2023/04/26 11:23:09;;;;;;;;;;;;;;;20.83;28.57;100260.66;5052546;28;19913;-68
2023/04/26 11:25:37;;;;;;;;;;;;;;;20.72;29.00;100260.44;5052213;28;19913;-68
2023/04/26 11:28:04;;;;;;;;;;;;;;;20.56;28.60;100255.00;5052579;28;19913;-67
2023/04/26 11:30:30;;;;;;;;;;;;;;;20.46;29.14;100261.00;5052228;28;20383;-70
2023/04/26 11:32:56;;;;;;;;;;;;;;;20.44;28.55;100262.28;5052207;28;19920;-67
2023/04/26 11:35:22;;;;;;;;;;;;;;;20.32;28.76;100260.41;5052006;28;19920;-68
2023/04/26 11:37:50;;;;;;;;;;;;;;;20.23;28.90;100250.19;5052045;28;19917;-66
2023/04/26 11:40:16;;;;;;;;;;;;;;;20.21;29.43;100252.31;5052216;28;19913;-67
2023/04/26 11:42:43;;;;;;;;;;;;;;;20.28;29.90;100250.31;5067569;28;21556;-70
2023/04/26 11:45:08;;;;;;;;;;;;;;;20.36;30.09;100260.75;5071056;28;20428;-69
2023/04/26 11:47:34;;;;;;;;;;;;;;;20.47;29.56;100257.22;5070411;28;19919;-67
2023/04/26 11:50:00;;;;;;;;;;;;;;;20.68;28.97;100248.47;5058828;28;19919;-68
2023/04/26 11:52:26;;;;;;;;;;;;;;;20.93;29.07;100250.00;5071488;28;20018;-67
2023/04/26 11:55:00;;;;;;;;;;;;;;;21.20;28.94;100250.22;5070764;28;19938;-68
2023/04/26 11:57:29;;;;;;;;;;;;;;;21.47;27.37;100245.81;5071701;28;19948;-69
2023/04/26 12:00:05;;;;;;;;;;;;;;;21.80;27.57;100268.56;5069511;28;19948;-69
2023/04/26 12:02:31;;;;;;;;;;;;;;;22.08;26.79;100265.75;5069655;28;20260;-71
2023/04/26 12:04:59;;;;;;;;;;;;;;;22.11;25.92;100261.69;5070196;28;19919;-75
2023/04/26 12:07:25;;;;;;;;;;;;;;;22.12;26.72;100252.50;5073089;28;20024;-72
2023/04/26 12:09:50;;;;;;;;;;;;;;;22.09;26.99;100253.00;5080228;28;19967;-73
2023/04/26 12:12:15;;;;;;;;;;;;;;;22.20;27.17;100254.75;5074303;28;19919;-72
2023/04/26 12:14:41;;;;;;;;;;;;;;;22.26;26.43;100256.47;5075996;28;19913;-70
2023/04/26 12:17:17;;;;;;;;;;;;;;;22.18;27.12;100252.31;5074498;28;19919;-75
2023/04/26 12:19:48;;;;;;;;;;;;;;;22.11;27.21;100259.00;5068103;28;19931;-71
2023/04/26 12:22:19;;;;;;;;;;;;;;;21.99;27.09;100244.69;5076458;28;19913;-72
2023/04/26 12:24:46;;;;;;;;;;;;;;;21.88;27.84;100247.25;5075906;28;19912;-68
2023/04/26 12:27:18;;;;;;;;;;;;;;;21.77;27.78;100253.59;5071028;28;19923;-70
2023/04/26 12:29:44;;;;;;;;;;;;;;;21.78;28.30;100251.72;5071226;28;20415;-69
2023/04/26 12:32:09;;;;;;;;;;;;;;;21.80;28.08;100249.56;5074578;28;19912;-70
2023/04/26 12:34:34;;;;;;;;;;;;;;;21.81;28.14;100251.22;5073974;28;19913;-69